Time;durP1;ratioP1;P1;durP2;ratioP2;P2;SDS_P1;SDS_P2;PMS_P1;PMS_P2;Temp;Humidity;BMP_temperature;BMP_pressure;BME280_temperature;BME280_humidity;BME280_pressure;Samples;Min_cycle;Max_cycle;Signal;HPM_P1;HPM_P2
2021/08/03 00:01:43;;;;;;;9.15;3.90;;;;;;;10.53;88.93;101679.00;5033981;28;20069;-73
2021/08/03 00:04:13;;;;;;;9.20;4.03;;;;;;;10.52;89.00;101675.47;5034728;28;20065;-74
2021/08/03 00:06:53;;;;;;;9.35;3.80;;;;;;;10.52;88.45;101667.50;5034305;28;20041;-75
2021/08/03 00:09:19;;;;;;;11.15;3.28;;;;;;;10.51;88.16;101671.13;5034505;28;20037;-74
2021/08/03 00:11:46;;;;;;;7.10;3.78;;;;;;;10.51;88.44;101671.13;5033753;28;20079;-74
2021/08/03 00:14:12;;;;;;;6.18;3.53;;;;;;;10.48;88.68;101663.41;5034625;28;20112;-75
2021/08/03 00:16:39;;;;;;;7.80;3.55;;;;;;;10.45;88.16;101665.44;5034359;28;20120;-74
2021/08/03 00:19:05;;;;;;;6.45;3.35;;;;;;;10.41;88.13;101667.50;5033592;28;20025;-73
2021/08/03 00:21:31;;;;;;;5.68;3.22;;;;;;;10.38;88.40;101660.59;5034185;28;20386;-74
2021/08/03 00:23:57;;;;;;;6.38;3.20;;;;;;;10.35;88.99;101660.81;5033323;28;20527;-74
2021/08/03 00:26:22;;;;;;;8.65;3.58;;;;;;;10.29;88.92;101653.28;5033848;28;20025;-74
2021/08/03 00:28:51;;;;;;;7.78;3.60;;;;;;;10.27;88.96;101655.22;5033589;28;20067;-74
2021/08/03 00:31:20;;;;;;;7.90;3.63;;;;;;;10.21;88.90;101653.88;5033958;28;20026;-74
2021/08/03 00:33:48;;;;;;;10.25;3.25;;;;;;;10.18;89.19;101647.91;5033477;28;20072;-75
2021/08/03 00:36:15;;;;;;;5.03;3.30;;;;;;;10.14;89.51;101651.81;5033748;28;20037;-74
2021/08/03 00:38:41;;;;;;;4.90;3.40;;;;;;;10.10;89.26;101653.81;5016230;28;20030;-74
2021/08/03 00:41:11;;;;;;;5.93;3.30;;;;;;;10.09;89.51;101656.59;5033280;28;20040;-74
2021/08/03 00:43:37;;;;;;;8.85;3.75;;;;;;;10.06;89.43;101655.00;5016048;28;20164;-75
2021/08/03 00:46:02;;;;;;;9.52;3.35;;;;;;;10.05;89.75;101651.53;5015209;28;20128;-73
2021/08/03 00:48:27;;;;;;;9.88;3.75;;;;;;;10.04;90.00;101648.97;5033317;28;20040;-73
2021/08/03 00:50:53;;;;;;;6.15;3.22;;;;;;;10.00;89.52;101651.03;5033085;28;20112;-74
2021/08/03 00:53:20;;;;;;;10.30;3.70;;;;;;;9.95;89.06;101647.84;5033687;28;20477;-74
2021/08/03 00:55:46;;;;;;;7.15;3.53;;;;;;;9.94;89.58;101650.63;5033624;28;20056;-74
2021/08/03 00:58:12;;;;;;;7.57;4.25;;;;;;;9.92;90.11;101647.25;5033180;28;20045;-74
2021/08/03 01:00:38;;;;;;;8.57;3.92;;;;;;;9.94;90.16;101653.28;5033484;28;20025;-74
2021/08/03 01:03:04;;;;;;;6.07;3.97;;;;;;;9.94;90.34;101646.19;5032849;28;20044;-73
2021/08/03 01:05:56;;;;;;;6.20;3.72;;;;;;;9.97;90.29;101643.28;5015424;28;20033;-74
2021/08/03 01:08:40;;;;;;;7.80;4.13;;;;;;;9.99;90.67;101644.00;5033473;28;20096;-74
2021/08/03 01:11:10;;;;;;;8.00;4.10;;;;;;;10.04;90.47;101641.00;5032383;28;20116;-75
2021/08/03 01:14:02;;;;;;;7.50;3.88;;;;;;;10.06;90.04;101628.41;5033277;28;20029;-74
2021/08/03 01:16:36;;;;;;;10.98;4.30;;;;;;;10.09;90.20;101630.88;5033430;28;20029;-73
2021/08/03 01:19:04;;;;;;;8.20;4.35;;;;;;;10.13;90.37;101628.81;5032869;28;20109;-73
2021/08/03 01:21:39;;;;;;;6.68;4.20;;;;;;;10.16;90.33;101625.94;5033353;28;20033;-74
2021/08/03 01:24:13;;;;;;;5.60;3.78;;;;;;;10.18;90.21;101630.16;5032536;28;20057;-74
2021/08/03 01:26:50;;;;;;;11.13;4.20;;;;;;;10.18;89.96;101627.50;5032752;28;20026;-74
2021/08/03 01:29:20;;;;;;;7.05;4.13;;;;;;;10.18;90.00;101624.84;5032981;28;20037;-74
2021/08/03 01:31:52;;;;;;;5.68;3.70;;;;;;;10.17;90.19;101630.28;5032904;28;20047;-74
2021/08/03 01:34:19;;;;;;;8.57;4.35;;;;;;;10.17;90.40;101625.81;5032893;28;20029;-74
2021/08/03 01:37:04;;;;;;;5.18;3.80;;;;;;;10.17;90.32;101623.16;5032486;28;20033;-74
2021/08/03 01:39:42;;;;;;;8.27;4.30;;;;;;;10.18;90.70;101621.31;5032702;28;20044;-74
2021/08/03 01:42:08;;;;;;;6.60;4.25;;;;;;;10.19;91.00;101615.88;5031943;28;20496;-75
2021/08/03 01:44:36;;;;;;;8.65;4.78;;;;;;;10.23;91.27;101630.66;5015205;28;20029;-75
2021/08/03 01:47:04;;;;;;;8.55;4.32;;;;;;;10.27;91.38;101623.31;5032182;28;20469;-75
2021/08/03 01:49:34;;;;;;;8.07;4.00;;;;;;;10.32;91.07;101625.59;5032409;28;20037;-74
2021/08/03 01:52:00;;;;;;;7.30;4.32;;;;;;;10.36;90.65;101619.09;5032058;28;20022;-75
2021/08/03 01:54:27;;;;;;;5.80;3.90;;;;;;;10.43;90.22;101624.81;5032667;28;20032;-75
2021/08/03 01:56:53;;;;;;;7.22;4.30;;;;;;;10.47;90.22;101627.09;5032056;28;20112;-74
2021/08/03 01:59:19;;;;;;;9.55;4.00;;;;;;;10.52;89.88;101630.25;5031635;28;20145;-75
2021/08/03 02:01:45;;;;;;;10.70;4.07;;;;;;;10.55;89.07;101629.16;5015054;28;20441;-75
2021/08/03 02:04:12;;;;;;;7.63;3.80;;;;;;;10.58;89.01;101631.59;5014252;28;20489;-75
2021/08/03 02:06:39;;;;;;;6.45;3.78;;;;;;;10.61;88.81;101641.97;5032179;28;20087;-75
2021/08/03 02:09:05;;;;;;;7.43;3.75;;;;;;;10.65;88.82;101639.94;5031915;28;20390;-74
2021/08/03 02:11:33;;;;;;;11.90;3.97;;;;;;;10.68;88.76;101634.38;5032358;28;20032;-74
2021/08/03 02:13:59;;;;;;;11.05;3.70;;;;;;;10.71;88.70;101636.81;5032026;28;20484;-74
2021/08/03 02:16:25;;;;;;;8.57;3.42;;;;;;;10.72;88.38;101635.84;5032385;28;20045;-74
2021/08/03 02:18:51;;;;;;;12.50;4.15;;;;;;;10.71;88.66;101629.66;5032488;28;20183;-74
2021/08/03 02:21:19;;;;;;;10.15;4.10;;;;;;;10.69;88.75;101626.28;5031772;28;20535;-74
2021/08/03 02:23:44;;;;;;;6.57;4.05;;;;;;;10.67;89.21;101627.34;5032542;28;20259;-73
2021/08/03 02:26:11;;;;;;;15.60;5.30;;;;;;;10.62;89.40;101622.41;5031813;28;20470;-74
2021/08/03 02:28:37;;;;;;;8.35;4.22;;;;;;;10.56;89.37;101625.53;5032265;28;20120;-74
2021/08/03 02:31:10;;;;;;;6.03;4.35;;;;;;;10.49;89.35;101630.47;5031734;28;20065;-74
2021/08/03 02:33:40;;;;;;;7.50;4.00;;;;;;;10.43;89.40;101622.13;5032336;28;20025;-74
2021/08/03 02:36:19;;;;;;;9.00;4.68;;;;;;;10.36;89.80;101622.63;5031556;28;20036;-74
2021/08/03 02:38:46;;;;;;;9.00;4.75;;;;;;;10.31;89.54;101630.06;5032348;28;20052;-75
2021/08/03 02:41:13;;;;;;;8.45;4.32;;;;;;;10.28;89.59;101632.13;5031427;28;20025;-75
2021/08/03 02:43:40;;;;;;;5.88;3.72;;;;;;;10.24;89.81;101626.19;5032457;28;20466;-74
2021/08/03 02:46:06;;;;;;;9.13;4.32;;;;;;;10.20;89.73;101625.56;5031746;28;20045;-74
2021/08/03 02:48:34;;;;;;;8.73;4.60;;;;;;;10.17;89.89;101628.47;5032004;28;20045;-74
2021/08/03 02:51:01;;;;;;;13.30;4.65;;;;;;;10.16;90.26;101629.41;5031999;28;20033;-74
2021/08/03 02:53:37;;;;;;;9.63;4.78;;;;;;;10.13;90.20;101626.16;5032093;28;20493;-74
2021/08/03 02:56:24;;;;;;;15.93;4.82;;;;;;;10.10;90.29;101629.91;5031563;28;20105;-74
2021/08/03 02:59:00;;;;;;;4.95;4.10;;;;;;;10.04;90.24;101625.03;5031801;28;20041;-74
2021/08/03 03:01:28;;;;;;;9.45;4.10;;;;;;;9.97;89.83;101627.34;5031350;28;20448;-74
2021/08/03 03:04:00;;;;;;;6.35;4.15;;;;;;;9.92;89.87;101631.28;5031982;28;20025;-74
2021/08/03 03:06:26;;;;;;;7.95;4.15;;;;;;;9.86;90.02;101628.13;5031488;28;20033;-74
2021/08/03 03:08:53;;;;;;;6.75;3.67;;;;;;;9.79;90.00;101628.69;5032988;28;20528;-74
2021/08/03 03:11:21;;;;;;;9.60;3.90;;;;;;;9.73;89.73;101619.38;5034845;28;20072;-74
2021/08/03 03:13:46;;;;;;;9.85;5.20;;;;;;;9.70;90.41;101612.50;5035234;28;20033;-74
2021/08/03 03:16:14;;;;;;;7.20;4.00;;;;;;;9.65;90.30;101621.75;5034806;28;20092;-74
2021/08/03 03:18:40;;;;;;;8.80;4.30;;;;;;;9.57;90.64;101621.47;5035433;28;20044;-74
2021/08/03 03:21:06;;;;;;;8.30;4.72;;;;;;;9.52;90.82;101624.47;5034578;28;20065;-76
2021/08/03 03:23:35;;;;;;;12.13;4.47;;;;;;;9.46;90.62;101620.44;5035334;28;20497;-74
2021/08/03 03:26:02;;;;;;;8.88;4.50;;;;;;;9.44;91.23;101619.72;5035408;28;20033;-73
2021/08/03 03:28:29;;;;;;;18.65;5.03;;;;;;;9.44;91.56;101621.53;5016885;28;20038;-74
2021/08/03 03:30:57;;;;;;;9.20;5.22;;;;;;;9.44;91.97;101617.06;5035178;28;20042;-74
2021/08/03 03:33:23;;;;;;;11.88;5.22;;;;;;;9.42;92.02;101615.47;5034451;28;20033;-74
2021/08/03 03:35:52;;;;;;;7.75;5.68;;;;;;;9.38;92.06;101622.00;5035252;28;20034;-74
2021/08/03 03:38:21;;;;;;;9.95;5.55;;;;;;;9.33;92.14;101622.31;5034428;28;20044;-73
2021/08/03 03:40:48;;;;;;;8.93;5.20;;;;;;;9.29;92.13;101616.38;5017390;28;20025;-74
2021/08/03 03:43:17;;;;;;;12.85;5.20;;;;;;;9.30;92.33;101617.22;5034682;28;20052;-73
2021/08/03 03:45:46;;;;;;;7.30;4.57;;;;;;;9.30;92.74;101617.22;5034933;28;20026;-73
2021/08/03 03:48:19;;;;;;;10.55;5.38;;;;;;;9.30;92.62;101614.56;5016446;28;20048;-73
2021/08/03 03:50:51;;;;;;;8.63;4.75;;;;;;;9.30;92.67;101611.91;5035133;28;20029;-73
2021/08/03 03:53:22;;;;;;;8.32;4.50;;;;;;;9.26;92.56;101615.78;5033978;28;20026;-74
2021/08/03 03:55:51;;;;;;;8.73;4.65;;;;;;;9.25;92.37;101611.41;5034813;28;20029;-74
2021/08/03 03:58:18;;;;;;;9.07;5.00;;;;;;;9.24;92.20;101609.69;5034135;28;20381;-74
2021/08/03 04:00:44;;;;;;;10.02;5.60;;;;;;;9.26;92.21;101615.78;5034179;28;20046;-74
2021/08/03 04:03:11;;;;;;;10.05;5.13;;;;;;;9.27;92.51;101614.78;5034469;28;20108;-74
2021/08/03 04:05:39;;;;;;;9.35;5.10;;;;;;;9.28;92.74;101608.53;5034240;28;20079;-74
2021/08/03 04:08:08;;;;;;;9.32;4.85;;;;;;;9.28;92.69;101608.53;5034421;28;20392;-74
2021/08/03 04:10:35;;;;;;;9.07;5.25;;;;;;;9.28;92.74;101601.41;5016135;28;20030;-74
2021/08/03 04:13:01;;;;;;;10.05;5.25;;;;;;;9.31;92.92;101603.00;5034394;28;20037;-74
2021/08/03 04:15:28;;;;;;;9.77;4.82;;;;;;;9.31;92.77;101608.31;5033805;28;20107;-75
2021/08/03 04:17:54;;;;;;;9.90;4.78;;;;;;;9.32;92.93;101602.03;5034287;28;20030;-75
2021/08/03 04:20:19;;;;;;;6.32;4.68;;;;;;;9.33;92.59;101596.63;5033224;28;20394;-75
2021/08/03 04:22:45;;;;;;;8.45;4.80;;;;;;;9.35;92.97;101605.31;5016289;28;20490;-74
2021/08/03 04:25:10;;;;;;;8.00;4.90;;;;;;;9.38;92.83;101609.56;5034476;28;20036;-75
2021/08/03 04:27:36;;;;;;;8.70;4.80;;;;;;;9.41;92.67;101614.63;5033598;28;20029;-74
2021/08/03 04:30:02;;;;;;;7.63;4.97;;;;;;;9.47;92.77;101616.00;5034289;28;20057;-74
2021/08/03 04:32:28;;;;;;;7.70;4.50;;;;;;;9.54;92.85;101609.28;5033388;28;20036;-75
2021/08/03 04:34:53;;;;;;;9.50;5.38;;;;;;;9.59;92.65;101609.78;5034086;28;20034;-74
2021/08/03 04:37:18;;;;;;;9.45;5.22;;;;;;;9.66;92.80;101603.03;5033510;28;20064;-74
2021/08/03 04:39:44;;;;;;;9.48;5.00;;;;;;;9.73;92.86;101600.75;5033939;28;20171;-74
2021/08/03 04:42:09;;;;;;;10.45;5.43;;;;;;;9.75;92.73;101603.31;5034202;28;20469;-74
2021/08/03 04:44:34;;;;;;;7.47;5.07;;;;;;;9.78;92.59;101608.38;5015457;28;20128;-74
2021/08/03 04:47:00;;;;;;;10.25;5.40;;;;;;;9.78;92.69;101601.28;5033783;28;20042;-73
2021/08/03 04:49:25;;;;;;;8.30;4.80;;;;;;;9.80;92.50;101599.34;5033213;28;20034;-75
2021/08/03 04:51:51;;;;;;;8.52;4.78;;;;;;;9.79;92.49;101594.16;5033598;28;20034;-73
2021/08/03 04:54:17;;;;;;;12.50;4.93;;;;;;;9.82;92.43;101596.56;5033687;28;20113;-74
2021/08/03 04:56:42;;;;;;;6.93;4.70;;;;;;;9.82;92.17;101594.78;5033518;28;20120;-73
2021/08/03 04:59:08;;;;;;;6.80;4.72;;;;;;;9.84;92.15;101592.00;5015700;28;20144;-73
2021/08/03 05:01:33;;;;;;;7.95;5.03;;;;;;;9.85;92.07;101589.22;5032903;28;20041;-73
2021/08/03 05:04:00;;;;;;;7.43;5.03;;;;;;;9.87;92.37;101591.78;5016200;28;20115;-74
2021/08/03 05:06:25;;;;;;;8.88;4.93;;;;;;;9.88;92.23;101591.66;5032743;28;20037;-74
2021/08/03 05:08:51;;;;;;;13.13;5.22;;;;;;;9.89;92.18;101593.34;5033419;28;20113;-73
2021/08/03 05:11:16;;;;;;;8.10;4.85;;;;;;;9.93;92.27;101599.28;5033357;28;20128;-74
2021/08/03 05:13:42;;;;;;;7.18;4.40;;;;;;;9.94;92.22;101592.13;5032277;28;20398;-74
2021/08/03 05:16:07;;;;;;;7.18;4.68;;;;;;;9.95;92.03;101599.16;5033352;28;20037;-74
2021/08/03 05:18:32;;;;;;;8.13;4.50;;;;;;;9.97;92.11;101599.88;5032496;28;20029;-74
2021/08/03 05:20:58;;;;;;;8.95;4.75;;;;;;;9.99;91.96;101597.97;5001763;28;20031;-73
2021/08/03 05:23:23;;;;;;;9.32;4.70;;;;;;;10.03;92.15;101588.78;4990480;28;20042;-73
2021/08/03 05:25:48;;;;;;;7.15;4.57;;;;;;;10.05;92.04;101598.34;4990718;28;20657;-72
2021/08/03 05:28:14;;;;;;;7.35;4.30;;;;;;;10.11;92.10;101586.41;4990881;28;20045;-73
2021/08/03 05:30:39;;;;;;;11.55;5.22;;;;;;;10.19;92.19;101583.97;4990048;28;20117;-72
2021/08/03 05:33:04;;;;;;;9.00;5.35;;;;;;;10.29;91.93;101588.59;4989851;28;20144;-73
2021/08/03 05:35:30;;;;;;;9.85;5.60;;;;;;;10.37;91.72;101588.88;4990317;28;20046;-74
2021/08/03 05:37:55;;;;;;;5.68;4.30;;;;;;;10.45;91.27;101589.13;4990824;28;20046;-73
2021/08/03 05:40:21;;;;;;;11.70;4.60;;;;;;;10.56;90.72;101590.94;4990742;28;20105;-73
2021/08/03 05:42:47;;;;;;;8.68;4.72;;;;;;;10.68;90.70;101589.13;4990142;28;20042;-73
2021/08/03 05:45:12;;;;;;;8.55;4.90;;;;;;;10.77;89.90;101586.56;4990377;28;20485;-71
2021/08/03 05:47:38;;;;;;;11.18;5.22;;;;;;;10.88;89.68;101593.72;4989825;28;20041;-71
2021/08/03 05:50:05;;;;;;;8.13;4.57;;;;;;;10.99;89.31;101592.88;4989142;28;20454;-72
2021/08/03 05:52:31;;;;;;;10.50;5.20;;;;;;;11.08;89.08;101584.13;4990173;28;20830;-73
2021/08/03 05:54:56;;;;;;;11.43;8.55;;;;;;;11.19;88.97;101593.91;4990514;28;20075;-73
2021/08/03 05:57:22;;;;;;;13.38;8.38;;;;;;;11.28;88.72;101593.13;4990622;28;20057;-72
2021/08/03 05:59:47;;;;;;;9.60;5.80;;;;;;;11.40;87.45;101593.97;4989386;28;20062;-71
2021/08/03 06:02:13;;;;;;;10.52;5.30;;;;;;;11.54;85.95;101587.50;4973096;28;20467;-72
2021/08/03 06:04:38;;;;;;;9.35;5.78;;;;;;;11.67;85.74;101587.31;4990142;28;20518;-73
2021/08/03 06:07:05;;;;;;;7.55;3.90;;;;;;;11.79;84.83;101591.66;4990013;28;20039;-73
2021/08/03 06:09:35;;;;;;;6.65;3.80;;;;;;;11.92;84.64;101595.94;4989498;28;20030;-74
2021/08/03 06:12:01;;;;;;;6.20;3.72;;;;;;;12.04;83.47;101594.09;4997242;28;20053;-72
2021/08/03 06:14:41;;;;;;;5.47;3.50;;;;;;;12.21;83.74;101590.84;5021860;28;20037;-72
2021/08/03 06:17:09;;;;;;;8.77;3.65;;;;;;;12.40;80.52;101592.75;5031914;28;20029;-71
2021/08/03 06:19:45;;;;;;;6.72;3.40;;;;;;;12.61;81.59;101595.38;5031742;28;20037;-71
2021/08/03 06:22:11;;;;;;;8.85;3.40;;;;;;;12.81;78.88;101590.13;5032236;28;20029;-72
2021/08/03 06:24:41;;;;;;;8.25;3.38;;;;;;;13.02;79.64;101585.53;5031741;28;20030;-72
2021/08/03 06:27:08;;;;;;;6.15;3.53;;;;;;;13.22;78.95;101593.59;5032293;28;20220;-72
2021/08/03 06:29:36;;;;;;;5.97;4.18;;;;;;;13.39;79.09;101586.75;5031425;28;20470;-72
2021/08/03 06:32:03;;;;;;;6.10;3.58;;;;;;;13.55;78.09;101586.19;5032016;28;20022;-72
2021/08/03 06:34:28;;;;;;;7.70;3.30;;;;;;;13.67;76.34;101582.38;5032186;28;20036;-72
2021/08/03 06:36:53;;;;;;;4.97;3.05;;;;;;;13.85;77.85;101579.00;5031688;28;20450;-72
2021/08/03 06:39:19;;;;;;;8.13;2.80;;;;;;;14.01;76.89;101581.13;5032204;28;20033;-71
2021/08/03 06:41:46;;;;;;;5.25;2.55;;;;;;;14.13;75.54;101587.97;5031913;28;20496;-72
2021/08/03 06:44:21;;;;;;;6.35;2.80;;;;;;;14.28;76.72;101583.00;5035384;28;20413;-72
2021/08/03 06:46:53;;;;;;;8.02;2.53;;;;;;;14.47;76.52;101587.47;5035425;28;20029;-71
2021/08/03 06:49:21;;;;;;;6.57;2.42;;;;;;;14.67;74.99;101590.09;5036016;28;20079;-72
2021/08/03 06:51:47;;;;;;;5.90;2.05;;;;;;;14.93;73.63;101585.75;5035470;28;20087;-71
2021/08/03 06:54:15;;;;;;;7.22;2.10;;;;;;;15.22;72.08;101582.03;5035848;28;20044;-71
2021/08/03 06:56:56;;;;;;;4.13;2.13;;;;;;;15.52;69.44;101583.53;5034983;28;20029;-72
2021/08/03 06:59:33;;;;;;;5.22;2.22;;;;;;;15.88;68.67;101588.03;5035694;28;20075;-72
2021/08/03 07:02:08;;;;;;;4.50;1.63;;;;;;;16.24;65.99;101581.72;5035173;28;20129;-72
2021/08/03 07:04:50;;;;;;;6.05;1.50;;;;;;;16.62;64.64;101584.97;5035352;28;20037;-72
2021/08/03 07:07:18;;;;;;;;;;;;;;;16.89;62.94;101584.75;5035755;28;20037;-72
2021/08/03 07:09:43;;;;;;;7.57;1.73;;;;;;;17.11;63.69;101587.88;5035051;28;19917;-72
2021/08/03 07:12:10;;;;;;;6.88;1.80;;;;;;;17.09;61.89;101584.50;5017652;28;20037;-72
2021/08/03 07:14:37;;;;;;;5.38;1.60;;;;;;;17.17;62.28;101583.69;5035629;28;20037;-72
2021/08/03 07:17:05;;;;;;;4.50;1.80;;;;;;;17.23;60.39;101580.34;5035473;28;20104;-71
2021/08/03 07:19:31;;;;;;;4.13;1.67;;;;;;;17.18;60.41;101577.28;5035089;28;20482;-72
2021/08/03 07:21:57;;;;;;;4.43;1.98;;;;;;;17.36;61.09;101571.78;5033832;28;20033;-71
2021/08/03 07:24:24;;;;;;;4.57;1.70;;;;;;;17.41;61.05;101575.66;5035385;28;20025;-72
2021/08/03 07:26:50;;;;;;;7.78;1.75;;;;;;;17.65;60.62;101573.16;5034727;28;20142;-71
2021/08/03 07:29:15;;;;;;;3.40;1.70;;;;;;;17.86;59.76;101578.88;5035277;28;20552;-72
2021/08/03 07:31:44;;;;;;;4.80;1.77;;;;;;;17.91;57.73;101576.53;5034395;28;20034;-72
2021/08/03 07:34:10;;;;;;;7.93;1.80;;;;;;;17.96;60.74;101576.03;5035250;28;20048;-71
2021/08/03 07:36:37;;;;;;;6.68;2.03;;;;;;;18.05;59.67;101582.22;5017837;28;20039;-71
2021/08/03 07:39:07;;;;;;;4.93;1.63;;;;;;;18.17;59.93;101580.88;5034597;28;20409;-71
2021/08/03 07:41:37;;;;;;;2.03;1.27;;;;;;;18.29;59.49;101571.44;5035386;28;20037;-72
2021/08/03 07:44:03;;;;;;;5.80;1.67;;;;;;;18.07;57.21;101574.84;5034455;28;20080;-72
2021/08/03 07:46:33;;;;;;;6.43;1.60;;;;;;;18.33;59.81;101574.59;5034887;28;20079;-72
2021/08/03 07:49:00;;;;;;;4.28;1.50;;;;;;;18.53;56.74;101576.94;5034001;28;20416;-71
2021/08/03 07:51:26;;;;;;;8.50;2.15;;;;;;;18.90;57.99;101576.28;5034785;28;20037;-71
2021/08/03 07:53:52;;;;;;;3.55;1.65;;;;;;;19.27;56.24;101574.72;5033863;28;20092;-72
2021/08/03 07:56:18;;;;;;;4.32;1.70;;;;;;;19.31;55.30;101572.50;5034065;28;20432;-72
2021/08/03 07:58:44;;;;;;;5.28;1.60;;;;;;;19.25;56.56;101575.91;5033953;28;20030;-74
2021/08/03 08:01:10;;;;;;;6.63;1.60;;;;;;;19.19;54.96;101570.22;5034261;28;20060;-72
2021/08/03 08:03:36;;;;;;;3.63;1.52;;;;;;;19.30;54.64;101571.69;5034670;28;20083;-72
2021/08/03 08:06:04;;;;;;;3.17;2.10;;;;;;;19.15;55.80;101573.44;5033996;28;20532;-71
2021/08/03 08:08:30;;;;;;;5.95;1.60;;;;;;;18.98;56.20;101575.41;5034147;28;20041;-71
2021/08/03 08:10:56;;;;;;;11.43;1.90;;;;;;;18.76;57.08;101575.13;5033786;28;20390;-72
2021/08/03 08:13:21;;;;;;;4.18;1.67;;;;;;;18.73;57.48;101571.94;5034413;28;20121;-72
2021/08/03 08:15:47;;;;;;;3.60;1.58;;;;;;;18.97;57.16;101569.19;5033458;28;20048;-72
2021/08/03 08:18:13;;;;;;;3.65;1.70;;;;;;;18.86;53.19;101572.25;5034353;28;20029;-71
2021/08/03 08:20:40;;;;;;;5.15;1.52;;;;;;;18.85;55.86;101571.44;5034556;28;20044;-72
2021/08/03 08:23:06;;;;;;;2.88;1.50;;;;;;;19.23;53.78;101568.00;5033664;28;20038;-73
2021/08/03 08:25:32;;;;;;;4.28;1.50;;;;;;;19.08;51.44;101575.16;5034243;28;20034;-72
2021/08/03 08:27:58;;;;;;;2.67;1.45;;;;;;;19.08;54.99;101572.47;5033551;28;20489;-72
2021/08/03 08:30:23;;;;;;;2.72;1.55;;;;;;;18.97;53.89;101573.72;5033786;28;20033;-71
2021/08/03 08:32:49;;;;;;;4.93;1.52;;;;;;;18.82;51.72;101573.59;5033868;28;20347;-74
2021/08/03 08:35:14;;;;;;;6.60;1.80;;;;;;;18.97;55.25;101573.72;5033926;28;20557;-72
2021/08/03 08:37:40;;;;;;;2.35;1.40;;;;;;;19.35;52.89;101569.28;5033966;28;20044;-72
2021/08/03 08:40:07;;;;;;;7.95;1.58;;;;;;;19.85;52.96;101577.84;5033231;28;20033;-72
2021/08/03 08:42:33;;;;;;;6.80;1.88;;;;;;;20.13;51.45;101577.25;5033795;28;20045;-72
2021/08/03 08:45:00;;;;;;;5.50;1.63;;;;;;;20.43;48.48;101571.84;5033414;28;20029;-72
2021/08/03 08:47:28;;;;;;;5.65;2.20;;;;;;;21.05;47.44;101565.19;5033814;28;20037;-71
2021/08/03 08:49:55;;;;;;;3.55;1.42;;;;;;;20.97;48.14;101570.69;5015273;28;20401;-72
2021/08/03 08:52:21;;;;;;;5.35;1.67;;;;;;;20.36;49.12;101569.06;5033294;28;20470;-71
2021/08/03 08:54:46;;;;;;;7.72;1.95;;;;;;;20.43;49.24;101577.25;5033399;28;20040;-72
2021/08/03 08:57:12;;;;;;;5.05;1.73;;;;;;;20.60;48.61;101570.63;5032687;28;20657;-72
2021/08/03 08:59:37;;;;;;;4.90;1.90;;;;;;;20.78;47.31;101566.75;5033378;28;20073;-71
2021/08/03 09:02:05;;;;;;;5.60;1.50;;;;;;;20.89;48.92;101565.41;5032865;28;20068;-71
2021/08/03 09:04:31;;;;;;;6.60;1.85;;;;;;;21.01;48.02;101558.47;5033745;28;20041;-72
2021/08/03 09:07:06;;;;;;;4.07;1.65;;;;;;;21.08;48.10;101567.50;5032243;28;20095;-72
2021/08/03 09:09:45;;;;;;;4.22;1.40;;;;;;;21.88;47.00;101574.72;5033282;28;20107;-72
2021/08/03 09:12:12;;;;;;;5.05;2.03;;;;;;;22.64;46.04;101571.28;5032472;28;20033;-71
2021/08/03 09:14:40;;;;;;;5.75;1.90;;;;;;;22.61;44.22;101558.13;5032980;28;20389;-73
2021/08/03 09:17:06;;;;;;;5.22;1.77;;;;;;;23.03;44.07;101561.59;5032548;28;20037;-71
2021/08/03 09:19:32;;;;;;;5.20;1.80;;;;;;;24.10;41.78;101561.75;5033085;28;20036;-71
2021/08/03 09:22:13;;;;;;;2.65;1.50;;;;;;;24.07;41.85;101567.59;5032628;28;20033;-72
2021/08/03 09:24:39;;;;;;;6.05;1.65;;;;;;;23.85;43.01;101570.53;5033104;28;20108;-71
2021/08/03 09:27:05;;;;;;;4.35;1.70;;;;;;;22.73;43.34;101555.66;5032413;28;20168;-72
2021/08/03 09:29:44;;;;;;;3.67;1.60;;;;;;;21.47;47.97;101563.53;5033045;28;20474;-71
2021/08/03 09:32:10;;;;;;;9.50;2.10;;;;;;;20.59;50.14;101560.00;5031876;28;20056;-72
2021/08/03 09:34:36;;;;;;;5.65;1.70;;;;;;;21.84;47.95;101560.75;5032969;28;20053;-72
2021/08/03 09:37:01;;;;;;;8.55;1.90;;;;;;;23.64;43.63;101557.16;5032452;28;20033;-72
2021/08/03 09:39:43;;;;;;;5.05;1.90;;;;;;;24.73;39.93;101554.88;5032949;28;20033;-72
2021/08/03 09:42:14;;;;;;;9.82;2.25;;;;;;;26.30;36.96;101562.31;5032399;28;20033;-72
2021/08/03 09:44:49;;;;;;;5.45;1.52;;;;;;;27.23;35.06;101554.00;5032720;28;20040;-72
2021/08/03 09:47:16;;;;;;;6.93;1.90;;;;;;;27.15;35.97;101549.72;5031966;28;20029;-72
2021/08/03 09:49:49;;;;;;;6.07;2.10;;;;;;;26.76;35.49;101551.13;5032732;28;20080;-72
2021/08/03 09:52:18;;;;;;;10.00;2.05;;;;;;;27.35;35.32;101552.19;5031989;28;20034;-72
2021/08/03 09:54:44;;;;;;;3.00;1.73;;;;;;;27.60;34.66;101556.59;5032702;28;20042;-71
2021/08/03 09:57:24;;;;;;;5.80;2.00;;;;;;;27.24;33.33;101561.13;5032257;28;20033;-72
2021/08/03 09:59:52;;;;;;;7.20;1.83;;;;;;;27.21;32.89;101558.88;5032254;28;20401;-71
2021/08/03 10:02:25;;;;;;;5.05;1.80;;;;;;;26.55;32.99;101553.22;5031387;28;20053;-72
2021/08/03 10:04:53;;;;;;;4.55;2.10;;;;;;;27.16;32.00;101550.56;5033157;28;20560;-72
2021/08/03 10:07:19;;;;;;;11.23;2.13;;;;;;;27.48;32.03;101550.31;5031977;28;20108;-72
2021/08/03 10:09:46;;;;;;;4.18;1.75;;;;;;;27.50;34.55;101553.63;5032350;28;20393;-71
2021/08/03 10:12:12;;;;;;;2.80;1.70;;;;;;;27.44;33.73;101548.03;5031721;28;20033;-71
2021/08/03 10:14:39;;;;;;;5.38;1.90;;;;;;;27.27;34.37;101545.13;5032418;28;20381;-71
2021/08/03 10:17:05;;;;;;;3.90;1.50;;;;;;;27.69;31.99;101540.69;5032935;28;20037;-71
2021/08/03 10:19:35;;;;;;;3.67;1.70;;;;;;;28.16;34.09;101554.41;5038824;28;20036;-71
2021/08/03 10:22:06;;;;;;;4.80;1.63;;;;;;;28.62;32.08;101554.56;5038665;28;20378;-71
2021/08/03 10:24:41;;;;;;;2.55;1.70;;;;;;;27.52;32.56;101551.50;5039221;28;20072;-71
2021/08/03 10:27:12;;;;;;;5.75;2.13;;;;;;;27.26;34.02;101551.66;5020683;28;20409;-72
2021/08/03 10:29:52;;;;;;;2.97;1.73;;;;;;;25.82;35.29;101552.91;5039412;28;20037;-72
2021/08/03 10:32:49;;;;;;;5.32;2.03;;;;;;;24.08;38.59;101567.41;5038261;28;20100;-72
2021/08/03 10:35:18;;;;;;;2.90;1.60;;;;;;;22.58;41.61;101561.25;5022521;28;20469;-72
2021/08/03 10:38:12;;;;;;;2.17;1.50;;;;;;;21.35;45.02;101559.66;5038890;28;20037;-72
2021/08/03 10:40:43;;;;;;;4.47;1.70;;;;;;;20.85;45.92;101558.69;5008826;28;20116;-71
2021/08/03 10:43:17;;;;;;;;;;;;;;;20.33;49.40;101555.94;5038355;28;20037;-74
2021/08/03 10:45:43;;;;;;;4.85;1.80;;;;;;;20.05;48.44;101555.72;5038736;28;19913;-72
2021/08/03 10:48:09;;;;;;;7.25;2.17;;;;;;;19.67;50.56;101559.22;5038933;28;20041;-72
2021/08/03 10:50:38;;;;;;;3.28;1.77;;;;;;;19.38;51.71;101554.59;5038786;28;20071;-72
2021/08/03 10:53:04;;;;;;;9.98;2.10;;;;;;;19.23;51.23;101551.81;5038491;28;20032;-72
2021/08/03 10:55:36;;;;;;;7.22;2.25;;;;;;;19.00;50.71;101560.75;5038067;28;20029;-72
2021/08/03 10:58:11;;;;;;;4.57;2.05;;;;;;;18.76;53.35;101550.03;5038538;28;20037;-72
2021/08/03 11:00:48;;;;;;;4.55;1.80;;;;;;;18.63;53.18;101551.44;5038428;28;20045;-72
2021/08/03 11:03:32;;;;;;;4.93;2.22;;;;;;;18.55;53.46;101546.06;5000483;28;20478;-73
2021/08/03 11:06:17;;;;;;;3.65;1.90;;;;;;;18.55;54.15;101553.34;4996199;28;20487;-72
2021/08/03 11:08:47;;;;;;;8.25;1.70;;;;;;;18.34;53.03;101554.75;4996283;28;20042;-72
2021/08/03 11:11:22;;;;;;;6.47;3.22;;;;;;;18.40;54.29;101553.22;4996100;28;20034;-74
2021/08/03 11:13:50;;;;;;;6.22;1.95;;;;;;;18.32;55.67;101546.84;4995831;28;20153;-73
2021/08/03 11:16:19;;;;;;;3.67;1.98;;;;;;;18.37;54.69;101543.63;4995459;28;20533;-73
2021/08/03 11:18:46;;;;;;;6.90;2.40;;;;;;;18.54;56.36;101547.09;4996270;28;20056;-73
2021/08/03 11:21:22;;;;;;;8.23;2.15;;;;;;;18.63;55.26;101545.19;4996406;28;20042;-74
2021/08/03 11:23:53;;;;;;;3.88;2.17;;;;;;;18.80;55.05;101544.09;4996265;28;20030;-73
2021/08/03 11:26:21;;;;;;;4.97;2.20;;;;;;;18.87;54.74;101541.59;4995151;28;20051;-73
2021/08/03 11:29:09;;;;;;;4.85;1.83;;;;;;;19.11;54.93;101539.75;4995034;28;20061;-73
2021/08/03 11:32:02;;;;;;;4.07;1.60;;;;;;;19.60;54.71;101542.09;4992265;28;20367;-72
2021/08/03 11:34:35;;;;;;;4.90;1.70;;;;;;;20.51;52.19;101530.38;4992563;28;20035;-72